sensor_id;sensor_type;location;lat;lon;timestamp;P1;durP1;ratioP1;P2;durP2;ratioP2
48361;SDS011;34510;51.888;5.670;2023-02-15T05:44:36;653.58;;;143.75;;
48361;SDS011;34510;51.888;5.670;2023-02-15T05:49:44;658.10;;;167.65;;
48361;SDS011;34510;51.888;5.670;2023-02-15T05:54:46;688.83;;;252.43;;
48361;SDS011;34510;51.888;5.670;2023-02-15T05:59:48;654.50;;;176.17;;
48361;SDS011;34510;51.888;5.670;2023-02-15T06:04:55;670.57;;;187.63;;
48361;SDS011;34510;51.888;5.670;2023-02-15T06:09:57;674.13;;;195.33;;
48361;SDS011;34510;51.888;5.670;2023-02-15T06:14:59;691.83;;;234.33;;
48361;SDS011;34510;51.888;5.670;2023-02-15T06:20:01;690.50;;;223.23;;
48361;SDS011;34510;51.888;5.670;2023-02-15T06:25:04;677.20;;;232.97;;
48361;SDS011;34510;51.888;5.670;2023-02-15T06:30:07;686.63;;;245.97;;
48361;SDS011;34510;51.888;5.670;2023-02-15T06:35:10;693.53;;;256.77;;
48361;SDS011;34510;51.888;5.670;2023-02-15T06:40:13;692.17;;;253.77;;
48361;SDS011;34510;51.888;5.670;2023-02-15T06:45:19;685.07;;;248.37;;
48361;SDS011;34510;51.888;5.670;2023-02-15T06:50:21;698.70;;;252.90;;
48361;SDS011;34510;51.888;5.670;2023-02-15T06:55:27;702.77;;;258.33;;
48361;SDS011;34510;51.888;5.670;2023-02-15T07:00:29;708.23;;;241.23;;
48361;SDS011;34510;51.888;5.670;2023-02-15T07:05:32;694.13;;;261.17;;
48361;SDS011;34510;51.888;5.670;2023-02-15T07:10:35;678.67;;;240.87;;
48361;SDS011;34510;51.888;5.670;2023-02-15T07:15:37;698.73;;;275.90;;
48361;SDS011;34510;51.888;5.670;2023-02-15T07:20:39;693.27;;;255.80;;
48361;SDS011;34510;51.888;5.670;2023-02-15T07:25:43;707.57;;;278.70;;
48361;SDS011;34510;51.888;5.670;2023-02-15T07:30:45;690.77;;;259.27;;
48361;SDS011;34510;51.888;5.670;2023-02-15T07:35:47;697.13;;;235.20;;
48361;SDS011;34510;51.888;5.670;2023-02-15T07:41:00;696.97;;;259.13;;
48361;SDS011;34510;51.888;5.670;2023-02-15T07:46:03;702.63;;;248.03;;
48361;SDS011;34510;51.888;5.670;2023-02-15T07:51:10;694.17;;;259.67;;
48361;SDS011;34510;51.888;5.670;2023-02-15T07:56:13;688.63;;;267.83;;
48361;SDS011;34510;51.888;5.670;2023-02-15T08:01:21;691.23;;;258.67;;
48361;SDS011;34510;51.888;5.670;2023-02-15T08:06:25;694.17;;;257.87;;
48361;SDS011;34510;51.888;5.670;2023-02-15T08:11:29;692.93;;;274.63;;
48361;SDS011;34510;51.888;5.670;2023-02-15T08:21:51;698.53;;;275.93;;
48361;SDS011;34510;51.888;5.670;2023-02-15T08:26:54;707.63;;;301.20;;
48361;SDS011;34510;51.888;5.670;2023-02-15T08:31:57;723.97;;;316.30;;
48361;SDS011;34510;51.888;5.670;2023-02-15T08:37:10;705.67;;;303.70;;
48361;SDS011;34510;51.888;5.670;2023-02-15T08:42:12;697.23;;;287.10;;
48361;SDS011;34510;51.888;5.670;2023-02-15T08:47:15;718.47;;;300.30;;
48361;SDS011;34510;51.888;5.670;2023-02-15T08:52:17;723.30;;;300.17;;
48361;SDS011;34510;51.888;5.670;2023-02-15T08:57:19;705.70;;;281.83;;
48361;SDS011;34510;51.888;5.670;2023-02-15T09:02:21;704.70;;;263.27;;
48361;SDS011;34510;51.888;5.670;2023-02-15T09:07:23;699.67;;;292.23;;
48361;SDS011;34510;51.888;5.670;2023-02-15T09:12:25;685.80;;;232.57;;
48361;SDS011;34510;51.888;5.670;2023-02-15T09:17:27;681.03;;;231.73;;
48361;SDS011;34510;51.888;5.670;2023-02-15T09:22:29;688.87;;;239.83;;
48361;SDS011;34510;51.888;5.670;2023-02-15T09:27:32;686.20;;;249.90;;
48361;SDS011;34510;51.888;5.670;2023-02-15T09:32:34;689.37;;;255.40;;
48361;SDS011;34510;51.888;5.670;2023-02-15T09:37:36;723.50;;;358.67;;
48361;SDS011;34510;51.888;5.670;2023-02-15T09:42:58;730.50;;;384.17;;
48361;SDS011;34510;51.888;5.670;2023-02-15T09:53:29;713.58;;;332.55;;
48361;SDS011;34510;51.888;5.670;2023-02-15T09:58:47;721.10;;;371.53;;
48361;SDS011;34510;51.888;5.670;2023-02-15T10:04:02;730.50;;;395.13;;
48361;SDS011;34510;51.888;5.670;2023-02-15T10:14:56;716.57;;;355.00;;
48361;SDS011;34510;51.888;5.670;2023-02-15T10:20:23;752.45;;;373.27;;
48361;SDS011;34510;51.888;5.670;2023-02-15T10:25:48;658.42;;;344.63;;
48361;SDS011;34510;51.888;5.670;2023-02-15T10:31:07;696.95;;;357.67;;
48361;SDS011;34510;51.888;5.670;2023-02-15T10:52:13;703.00;;;376.77;;
48361;SDS011;34510;51.888;5.670;2023-02-15T10:57:25;698.50;;;391.00;;
48361;SDS011;34510;51.888;5.670;2023-02-15T11:07:54;629.60;;;393.08;;
48361;SDS011;34510;51.888;5.670;2023-02-15T11:13:02;678.88;;;416.95;;
48361;SDS011;34510;51.888;5.670;2023-02-15T11:23:21;754.55;;;442.02;;
48361;SDS011;34510;51.888;5.670;2023-02-15T11:28:37;711.33;;;455.20;;
48361;SDS011;34510;51.888;5.670;2023-02-15T11:34:00;694.10;;;478.30;;
48361;SDS011;34510;51.888;5.670;2023-02-15T11:39:10;721.72;;;461.05;;
48361;SDS011;34510;51.888;5.670;2023-02-15T11:44:26;764.30;;;487.10;;
48361;SDS011;34510;51.888;5.670;2023-02-15T11:49:34;759.13;;;485.23;;
48361;SDS011;34510;51.888;5.670;2023-02-15T11:54:37;763.58;;;488.45;;
48361;SDS011;34510;51.888;5.670;2023-02-15T11:59:46;770.53;;;510.17;;
48361;SDS011;34510;51.888;5.670;2023-02-15T12:05:03;764.90;;;500.00;;
48361;SDS011;34510;51.888;5.670;2023-02-15T12:10:25;774.90;;;510.52;;
48361;SDS011;34510;51.888;5.670;2023-02-15T12:15:29;708.00;;;504.23;;
48361;SDS011;34510;51.888;5.670;2023-02-15T12:20:33;637.67;;;516.47;;
48361;SDS011;34510;51.888;5.670;2023-02-15T12:25:41;641.47;;;526.38;;
48361;SDS011;34510;51.888;5.670;2023-02-15T12:30:52;625.90;;;527.72;;
48361;SDS011;34510;51.888;5.670;2023-02-15T12:35:57;637.83;;;534.25;;
48361;SDS011;34510;51.888;5.670;2023-02-15T12:46:26;702.45;;;551.95;;
48361;SDS011;34510;51.888;5.670;2023-02-15T12:51:28;671.25;;;550.40;;
48361;SDS011;34510;51.888;5.670;2023-02-15T12:56:30;729.25;;;537.05;;
48361;SDS011;34510;51.888;5.670;2023-02-15T13:01:33;742.78;;;560.58;;
48361;SDS011;34510;51.888;5.670;2023-02-15T13:06:35;750.25;;;549.65;;
48361;SDS011;34510;51.888;5.670;2023-02-15T13:11:38;715.88;;;563.50;;
48361;SDS011;34510;51.888;5.670;2023-02-15T13:16:42;696.42;;;553.15;;
48361;SDS011;34510;51.888;5.670;2023-02-15T13:21:47;654.67;;;549.35;;
48361;SDS011;34510;51.888;5.670;2023-02-15T13:26:52;702.80;;;553.47;;
48361;SDS011;34510;51.888;5.670;2023-02-15T13:32:21;740.75;;;539.83;;
48361;SDS011;34510;51.888;5.670;2023-02-15T13:48:01;731.03;;;587.72;;
48361;SDS011;34510;51.888;5.670;2023-02-15T14:09:54;704.65;;;594.33;;
48361;SDS011;34510;51.888;5.670;2023-02-15T14:30:56;678.15;;;596.95;;
48361;SDS011;34510;51.888;5.670;2023-02-15T14:35:59;661.20;;;589.30;;
48361;SDS011;34510;51.888;5.670;2023-02-15T15:22:41;653.10;;;586.22;;
48361;SDS011;34510;51.888;5.670;2023-02-15T15:27:51;645.03;;;576.95;;
48361;SDS011;34510;51.888;5.670;2023-02-15T15:32:59;644.03;;;575.30;;
48361;SDS011;34510;51.888;5.670;2023-02-15T15:38:15;620.20;;;555.20;;
48361;SDS011;34510;51.888;5.670;2023-02-15T15:49:02;618.50;;;553.45;;
48361;SDS011;34510;51.888;5.670;2023-02-15T15:54:15;606.60;;;542.65;;
48361;SDS011;34510;51.888;5.670;2023-02-15T15:59:22;616.47;;;549.70;;
48361;SDS011;34510;51.888;5.670;2023-02-15T16:04:28;618.10;;;552.70;;
48361;SDS011;34510;51.888;5.670;2023-02-15T16:09:32;627.95;;;562.03;;
48361;SDS011;34510;51.888;5.670;2023-02-15T16:14:35;584.78;;;522.15;;
48361;SDS011;34510;51.888;5.670;2023-02-15T16:19:40;582.33;;;519.55;;
48361;SDS011;34510;51.888;5.670;2023-02-15T16:35:27;603.33;;;511.13;;
48361;SDS011;34510;51.888;5.670;2023-02-15T16:40:38;637.00;;;506.90;;
48361;SDS011;34510;51.888;5.670;2023-02-15T16:46:04;738.80;;;528.58;;
48361;SDS011;34510;51.888;5.670;2023-02-15T16:51:07;760.08;;;516.70;;
48361;SDS011;34510;51.888;5.670;2023-02-15T16:56:10;589.63;;;503.13;;
48361;SDS011;34510;51.888;5.670;2023-02-15T17:01:13;558.13;;;497.48;;
48361;SDS011;34510;51.888;5.670;2023-02-15T17:11:34;514.67;;;460.42;;
48361;SDS011;34510;51.888;5.670;2023-02-15T17:21:50;455.80;;;413.20;;
48361;SDS011;34510;51.888;5.670;2023-02-15T17:26:55;449.60;;;406.92;;
48361;SDS011;34510;51.888;5.670;2023-02-15T17:32:01;419.83;;;381.52;;
48361;SDS011;34510;51.888;5.670;2023-02-15T17:37:03;415.08;;;377.98;;
48361;SDS011;34510;51.888;5.670;2023-02-15T17:42:05;470.15;;;423.60;;
48361;SDS011;34510;51.888;5.670;2023-02-15T17:47:09;466.13;;;420.58;;
48361;SDS011;34510;51.888;5.670;2023-02-15T17:52:16;491.83;;;441.48;;
48361;SDS011;34510;51.888;5.670;2023-02-15T17:57:19;473.67;;;426.00;;
48361;SDS011;34510;51.888;5.670;2023-02-15T18:02:21;474.02;;;426.33;;
48361;SDS011;34510;51.888;5.670;2023-02-15T18:07:42;476.85;;;428.38;;
48361;SDS011;34510;51.888;5.670;2023-02-15T18:13:03;478.88;;;429.02;;
48361;SDS011;34510;51.888;5.670;2023-02-15T18:18:07;508.23;;;444.90;;
48361;SDS011;34510;51.888;5.670;2023-02-15T18:23:13;557.80;;;440.67;;
48361;SDS011;34510;51.888;5.670;2023-02-15T18:28:15;562.22;;;439.30;;
48361;SDS011;34510;51.888;5.670;2023-02-15T18:33:24;606.50;;;435.13;;
48361;SDS011;34510;51.888;5.670;2023-02-15T18:38:36;628.65;;;424.90;;
48361;SDS011;34510;51.888;5.670;2023-02-15T18:43:38;561.72;;;442.35;;
48361;SDS011;34510;51.888;5.670;2023-02-15T18:48:40;620.78;;;431.65;;
48361;SDS011;34510;51.888;5.670;2023-02-15T18:53:42;656.30;;;417.15;;
48361;SDS011;34510;51.888;5.670;2023-02-15T18:58:44;672.25;;;432.50;;
48361;SDS011;34510;51.888;5.670;2023-02-15T19:03:50;724.53;;;431.00;;
48361;SDS011;34510;51.888;5.670;2023-02-15T19:08:52;515.88;;;394.48;;
48361;SDS011;34510;51.888;5.670;2023-02-15T19:13:54;469.77;;;403.75;;
48361;SDS011;34510;51.888;5.670;2023-02-15T19:18:56;532.55;;;390.25;;
48361;SDS011;34510;51.888;5.670;2023-02-15T19:24:03;480.05;;;396.13;;
48361;SDS011;34510;51.888;5.670;2023-02-15T19:29:09;748.28;;;403.35;;
48361;SDS011;34510;51.888;5.670;2023-02-15T19:34:14;744.28;;;394.55;;
48361;SDS011;34510;51.888;5.670;2023-02-15T19:39:28;753.45;;;413.20;;
48361;SDS011;34510;51.888;5.670;2023-02-15T19:44:33;756.22;;;416.17;;
48361;SDS011;34510;51.888;5.670;2023-02-15T19:49:35;733.87;;;451.27;;
48361;SDS011;34510;51.888;5.670;2023-02-15T19:54:37;736.63;;;457.13;;
48361;SDS011;34510;51.888;5.670;2023-02-15T19:59:39;738.80;;;444.73;;
48361;SDS011;34510;51.888;5.670;2023-02-15T20:04:42;747.80;;;464.17;;
48361;SDS011;34510;51.888;5.670;2023-02-15T20:09:44;724.83;;;414.90;;
48361;SDS011;34510;51.888;5.670;2023-02-15T20:14:46;733.77;;;424.33;;
48361;SDS011;34510;51.888;5.670;2023-02-15T20:19:49;737.03;;;414.00;;
48361;SDS011;34510;51.888;5.670;2023-02-15T20:24:51;729.37;;;434.50;;
48361;SDS011;34510;51.888;5.670;2023-02-15T20:29:56;748.15;;;393.40;;
48361;SDS011;34510;51.888;5.670;2023-02-15T20:34:58;746.75;;;393.75;;
48361;SDS011;34510;51.888;5.670;2023-02-15T20:40:01;745.35;;;380.13;;
48361;SDS011;34510;51.888;5.670;2023-02-15T20:45:12;746.30;;;387.50;;
48361;SDS011;34510;51.888;5.670;2023-02-15T20:55:26;747.08;;;384.17;;
48361;SDS011;34510;51.888;5.670;2023-02-15T21:00:30;742.58;;;377.30;;
48361;SDS011;34510;51.888;5.670;2023-02-15T21:05:34;743.42;;;378.40;;
48361;SDS011;34510;51.888;5.670;2023-02-15T21:11:00;750.35;;;386.65;;
48361;SDS011;34510;51.888;5.670;2023-02-15T21:16:07;745.00;;;381.40;;
48361;SDS011;34510;51.888;5.670;2023-02-15T21:21:11;744.33;;;376.23;;
48361;SDS011;34510;51.888;5.670;2023-02-15T21:26:21;744.72;;;384.75;;
48361;SDS011;34510;51.888;5.670;2023-02-15T21:31:24;743.58;;;386.45;;
48361;SDS011;34510;51.888;5.670;2023-02-15T21:36:32;743.72;;;383.85;;
48361;SDS011;34510;51.888;5.670;2023-02-15T21:41:34;740.50;;;373.83;;
48361;SDS011;34510;51.888;5.670;2023-02-15T21:46:58;737.97;;;372.50;;
48361;SDS011;34510;51.888;5.670;2023-02-15T21:52:20;751.42;;;377.92;;
48361;SDS011;34510;51.888;5.670;2023-02-15T21:57:24;748.78;;;381.42;;
48361;SDS011;34510;51.888;5.670;2023-02-15T22:02:30;739.47;;;353.90;;
48361;SDS011;34510;51.888;5.670;2023-02-15T22:07:51;742.88;;;364.35;;
48361;SDS011;34510;51.888;5.670;2023-02-15T22:12:54;741.65;;;375.25;;
48361;SDS011;34510;51.888;5.670;2023-02-15T22:17:56;741.58;;;357.20;;
48361;SDS011;34510;51.888;5.670;2023-02-15T22:22:58;742.05;;;347.15;;
48361;SDS011;34510;51.888;5.670;2023-02-15T22:28:00;741.92;;;353.45;;
48361;SDS011;34510;51.888;5.670;2023-02-15T22:33:02;741.00;;;345.52;;
48361;SDS011;34510;51.888;5.670;2023-02-15T22:38:04;712.10;;;353.30;;
48361;SDS011;34510;51.888;5.670;2023-02-15T22:43:06;746.05;;;360.35;;
48361;SDS011;34510;51.888;5.670;2023-02-15T22:48:20;739.33;;;339.80;;
48361;SDS011;34510;51.888;5.670;2023-02-15T22:53:23;741.80;;;342.85;;
48361;SDS011;34510;51.888;5.670;2023-02-15T22:58:25;740.17;;;345.98;;
48361;SDS011;34510;51.888;5.670;2023-02-15T23:03:29;733.22;;;332.73;;
48361;SDS011;34510;51.888;5.670;2023-02-15T23:08:32;740.08;;;348.75;;
48361;SDS011;34510;51.888;5.670;2023-02-15T23:13:34;737.47;;;341.55;;
48361;SDS011;34510;51.888;5.670;2023-02-15T23:18:38;736.33;;;339.88;;
48361;SDS011;34510;51.888;5.670;2023-02-15T23:23:42;731.53;;;336.10;;
48361;SDS011;34510;51.888;5.670;2023-02-15T23:28:46;736.75;;;334.38;;
48361;SDS011;34510;51.888;5.670;2023-02-15T23:33:49;744.22;;;330.10;;
48361;SDS011;34510;51.888;5.670;2023-02-15T23:38:53;737.45;;;337.17;;
48361;SDS011;34510;51.888;5.670;2023-02-15T23:43:58;745.58;;;336.63;;
48361;SDS011;34510;51.888;5.670;2023-02-15T23:49:02;735.03;;;328.65;;
48361;SDS011;34510;51.888;5.670;2023-02-15T23:54:16;743.38;;;339.02;;
48361;SDS011;34510;51.888;5.670;2023-02-15T23:59:21;736.75;;;326.52;;
